sensor_id;sensor_type;location;lat;lon;timestamp;pressure;altitude;pressure_sealevel;temperature;humidity
76794;BME280;65745;50.278;18.192;2023-07-29T00:00:19;99065.44;;;17.25;82.34
76794;BME280;65745;50.278;18.192;2023-07-29T00:03:11;99066.39;;;17.31;82.21
76794;BME280;65745;50.278;18.192;2023-07-29T00:05:43;99070.63;;;17.36;82.44
76794;BME280;65745;50.278;18.192;2023-07-29T00:08:16;99072.14;;;17.39;82.65
76794;BME280;65745;50.278;18.192;2023-07-29T00:10:48;99069.96;;;17.42;82.45
76794;BME280;65745;50.278;18.192;2023-07-29T00:13:20;99065.73;;;17.45;82.60
76794;BME280;65745;50.278;18.192;2023-07-29T00:15:55;99063.93;;;17.48;82.56
76794;BME280;65745;50.278;18.192;2023-07-29T00:18:27;99066.13;;;17.51;83.41
76794;BME280;65745;50.278;18.192;2023-07-29T00:20:59;99067.67;;;17.52;83.22
76794;BME280;65745;50.278;18.192;2023-07-29T00:23:31;99072.72;;;17.52;82.83
76794;BME280;65745;50.278;18.192;2023-07-29T00:26:03;99076.13;;;17.48;83.50
76794;BME280;65745;50.278;18.192;2023-07-29T00:28:35;99079.17;;;17.43;83.52
76794;BME280;65745;50.278;18.192;2023-07-29T00:31:08;99078.50;;;17.42;83.29
76794;BME280;65745;50.278;18.192;2023-07-29T00:33:41;99078.33;;;17.42;83.17
76794;BME280;65745;50.278;18.192;2023-07-29T00:36:13;99083.57;;;17.41;83.15
76794;BME280;65745;50.278;18.192;2023-07-29T00:38:45;99084.90;;;17.36;83.85
76794;BME280;65745;50.278;18.192;2023-07-29T00:41:18;99084.55;;;17.36;83.39
76794;BME280;65745;50.278;18.192;2023-07-29T00:43:51;99087.28;;;17.38;83.15
76794;BME280;65745;50.278;18.192;2023-07-29T00:46:23;99086.59;;;17.38;82.92
76794;BME280;65745;50.278;18.192;2023-07-29T00:48:56;99085.24;;;17.36;82.61
76794;BME280;65745;50.278;18.192;2023-07-29T00:51:28;99088.42;;;17.34;82.69
76794;BME280;65745;50.278;18.192;2023-07-29T00:54:01;99088.64;;;17.31;82.96
76794;BME280;65745;50.278;18.192;2023-07-29T00:56:34;99087.27;;;17.31;83.13
76794;BME280;65745;50.278;18.192;2023-07-29T00:59:07;99083.83;;;17.29;84.37
76794;BME280;65745;50.278;18.192;2023-07-29T01:01:40;99088.12;;;17.24;84.04
76794;BME280;65745;50.278;18.192;2023-07-29T01:04:12;99085.82;;;17.25;83.92
76794;BME280;65745;50.278;18.192;2023-07-29T01:06:53;99088.38;;;17.28;83.80
76794;BME280;65745;50.278;18.192;2023-07-29T01:09:43;99088.67;;;17.30;83.75
76794;BME280;65745;50.278;18.192;2023-07-29T01:12:24;99090.03;;;17.32;85.07
76794;BME280;65745;50.278;18.192;2023-07-29T01:15:01;99087.02;;;17.35;84.06
76794;BME280;65745;50.278;18.192;2023-07-29T01:17:42;99088.52;;;17.38;84.37
76794;BME280;65745;50.278;18.192;2023-07-29T01:20:16;99088.14;;;17.39;84.99
76794;BME280;65745;50.278;18.192;2023-07-29T01:22:51;99095.23;;;17.41;85.13
76794;BME280;65745;50.278;18.192;2023-07-29T01:25:23;99092.98;;;17.41;85.06
76794;BME280;65745;50.278;18.192;2023-07-29T01:27:55;99092.59;;;17.42;84.41
76794;BME280;65745;50.278;18.192;2023-07-29T01:30:33;99091.04;;;17.42;85.05
76794;BME280;65745;50.278;18.192;2023-07-29T01:33:12;99093.91;;;17.38;84.56
76794;BME280;65745;50.278;18.192;2023-07-29T01:35:48;99090.84;;;17.35;84.62
76794;BME280;65745;50.278;18.192;2023-07-29T01:38:27;99089.82;;;17.34;84.66
76794;BME280;65745;50.278;18.192;2023-07-29T01:41:04;99090.35;;;17.34;84.26
76794;BME280;65745;50.278;18.192;2023-07-29T01:43:38;99085.83;;;17.33;84.41
76794;BME280;65745;50.278;18.192;2023-07-29T01:46:15;99087.29;;;17.30;84.46
76794;BME280;65745;50.278;18.192;2023-07-29T01:48:47;99085.07;;;17.28;84.61
76794;BME280;65745;50.278;18.192;2023-07-29T01:51:19;99086.33;;;17.26;84.27
76794;BME280;65745;50.278;18.192;2023-07-29T01:53:52;99086.36;;;17.25;84.67
76794;BME280;65745;50.278;18.192;2023-07-29T01:56:26;99086.65;;;17.18;85.31
76794;BME280;65745;50.278;18.192;2023-07-29T01:58:59;99084.84;;;17.13;85.35
76794;BME280;65745;50.278;18.192;2023-07-29T02:01:31;99083.73;;;17.09;85.10
76794;BME280;65745;50.278;18.192;2023-07-29T02:04:04;99081.67;;;17.07;84.84
76794;BME280;65745;50.278;18.192;2023-07-29T02:06:36;99081.67;;;17.06;85.00
76794;BME280;65745;50.278;18.192;2023-07-29T02:09:08;99085.98;;;17.00;85.50
76794;BME280;65745;50.278;18.192;2023-07-29T02:11:40;99087.55;;;16.99;84.81
76794;BME280;65745;50.278;18.192;2023-07-29T02:14:13;99088.80;;;16.98;84.67
76794;BME280;65745;50.278;18.192;2023-07-29T02:16:45;99088.45;;;16.98;84.57
76794;BME280;65745;50.278;18.192;2023-07-29T02:19:17;99085.85;;;16.97;84.50
76794;BME280;65745;50.278;18.192;2023-07-29T02:21:49;99087.27;;;16.94;84.40
76794;BME280;65745;50.278;18.192;2023-07-29T02:24:21;99085.38;;;16.95;84.26
76794;BME280;65745;50.278;18.192;2023-07-29T02:26:53;99086.61;;;16.94;84.40
76794;BME280;65745;50.278;18.192;2023-07-29T02:29:25;99086.99;;;16.92;84.50
76794;BME280;65745;50.278;18.192;2023-07-29T02:31:57;99091.02;;;16.91;84.57
76794;BME280;65745;50.278;18.192;2023-07-29T02:34:30;99085.98;;;16.90;84.49
76794;BME280;65745;50.278;18.192;2023-07-29T02:37:02;99088.23;;;16.91;84.57
76794;BME280;65745;50.278;18.192;2023-07-29T02:39:34;99089.51;;;16.88;84.48
76794;BME280;65745;50.278;18.192;2023-07-29T02:42:06;99090.96;;;16.85;84.84
76794;BME280;65745;50.278;18.192;2023-07-29T02:44:40;99091.73;;;16.81;85.10
76794;BME280;65745;50.278;18.192;2023-07-29T02:47:12;99092.21;;;16.73;85.88
76794;BME280;65745;50.278;18.192;2023-07-29T02:49:44;99096.83;;;16.68;86.43
76794;BME280;65745;50.278;18.192;2023-07-29T02:52:16;99100.55;;;16.64;86.34
76794;BME280;65745;50.278;18.192;2023-07-29T02:54:49;99100.25;;;16.62;85.78
76794;BME280;65745;50.278;18.192;2023-07-29T02:57:21;99099.92;;;16.60;86.08
76794;BME280;65745;50.278;18.192;2023-07-29T02:59:53;99096.98;;;16.58;86.28
76794;BME280;65745;50.278;18.192;2023-07-29T03:02:25;99099.10;;;16.56;86.13
76794;BME280;65745;50.278;18.192;2023-07-29T03:04:58;99099.60;;;16.57;85.72
76794;BME280;65745;50.278;18.192;2023-07-29T03:07:30;99099.75;;;16.60;85.28
76794;BME280;65745;50.278;18.192;2023-07-29T03:10:02;99093.63;;;16.63;85.08
76794;BME280;65745;50.278;18.192;2023-07-29T03:12:34;99100.55;;;16.64;84.90
76794;BME280;65745;50.278;18.192;2023-07-29T03:15:08;99107.05;;;16.60;85.13
76794;BME280;65745;50.278;18.192;2023-07-29T03:17:40;99106.30;;;16.51;85.36
76794;BME280;65745;50.278;18.192;2023-07-29T03:20:12;99105.46;;;16.49;85.04
76794;BME280;65745;50.278;18.192;2023-07-29T03:22:45;99102.66;;;16.50;85.13
76794;BME280;65745;50.278;18.192;2023-07-29T03:25:17;99104.57;;;16.51;85.06
76794;BME280;65745;50.278;18.192;2023-07-29T03:27:49;99108.17;;;16.53;84.64
76794;BME280;65745;50.278;18.192;2023-07-29T03:30:22;99112.89;;;16.52;84.68
76794;BME280;65745;50.278;18.192;2023-07-29T03:32:55;99108.91;;;16.52;84.71
76794;BME280;65745;50.278;18.192;2023-07-29T03:35:27;99108.18;;;16.53;84.77
76794;BME280;65745;50.278;18.192;2023-07-29T03:37:59;99107.98;;;16.55;84.74
76794;BME280;65745;50.278;18.192;2023-07-29T03:40:31;99108.15;;;16.54;84.88
76794;BME280;65745;50.278;18.192;2023-07-29T03:43:03;99107.98;;;16.54;84.67
76794;BME280;65745;50.278;18.192;2023-07-29T03:45:36;99102.41;;;16.54;85.37
76794;BME280;65745;50.278;18.192;2023-07-29T03:48:09;99107.15;;;16.52;86.70
76794;BME280;65745;50.278;18.192;2023-07-29T03:50:41;99109.63;;;16.50;86.58
76794;BME280;65745;50.278;18.192;2023-07-29T03:53:13;99112.84;;;16.55;86.10
76794;BME280;65745;50.278;18.192;2023-07-29T03:55:46;99112.45;;;16.60;85.66
76794;BME280;65745;50.278;18.192;2023-07-29T03:58:18;99116.52;;;16.66;85.64
76794;BME280;65745;50.278;18.192;2023-07-29T04:00:50;99118.17;;;16.70;85.89
76794;BME280;65745;50.278;18.192;2023-07-29T04:03:22;99117.10;;;16.73;86.04
76794;BME280;65745;50.278;18.192;2023-07-29T04:05:57;99119.98;;;16.76;86.80
76794;BME280;65745;50.278;18.192;2023-07-29T04:08:29;99120.42;;;16.81;86.15
76794;BME280;65745;50.278;18.192;2023-07-29T04:11:01;99122.56;;;16.87;85.76
76794;BME280;65745;50.278;18.192;2023-07-29T04:13:34;99128.02;;;16.94;85.86
76794;BME280;65745;50.278;18.192;2023-07-29T04:16:08;99125.02;;;16.96;86.02
76794;BME280;65745;50.278;18.192;2023-07-29T04:18:40;99125.27;;;17.02;85.62
76794;BME280;65745;50.278;18.192;2023-07-29T04:21:12;99130.34;;;17.09;85.40
76794;BME280;65745;50.278;18.192;2023-07-29T04:23:44;99130.38;;;17.16;85.31
76794;BME280;65745;50.278;18.192;2023-07-29T04:26:16;99131.31;;;17.22;85.34
76794;BME280;65745;50.278;18.192;2023-07-29T04:28:49;99134.03;;;17.25;85.77
76794;BME280;65745;50.278;18.192;2023-07-29T04:31:21;99133.46;;;17.28;85.75
76794;BME280;65745;50.278;18.192;2023-07-29T04:33:53;99134.74;;;17.33;85.90
76794;BME280;65745;50.278;18.192;2023-07-29T04:36:25;99137.73;;;17.40;85.01
76794;BME280;65745;50.278;18.192;2023-07-29T04:38:57;99140.58;;;17.46;85.11
76794;BME280;65745;50.278;18.192;2023-07-29T04:41:29;99136.77;;;17.54;84.92
76794;BME280;65745;50.278;18.192;2023-07-29T04:44:01;99136.62;;;17.63;84.75
76794;BME280;65745;50.278;18.192;2023-07-29T04:46:36;99133.53;;;17.69;84.82
76794;BME280;65745;50.278;18.192;2023-07-29T04:49:09;99135.80;;;17.77;84.63
76794;BME280;65745;50.278;18.192;2023-07-29T04:51:41;99137.06;;;17.83;84.58
76794;BME280;65745;50.278;18.192;2023-07-29T04:54:13;99137.05;;;17.91;84.35
76794;BME280;65745;50.278;18.192;2023-07-29T04:56:45;99136.72;;;17.98;84.94
76794;BME280;65745;50.278;18.192;2023-07-29T04:59:20;99138.95;;;18.07;84.92
76794;BME280;65745;50.278;18.192;2023-07-29T05:01:52;99138.04;;;18.16;84.53
76794;BME280;65745;50.278;18.192;2023-07-29T05:04:25;99140.78;;;18.26;84.22
76794;BME280;65745;50.278;18.192;2023-07-29T05:06:57;99138.27;;;18.37;83.99
76794;BME280;65745;50.278;18.192;2023-07-29T05:09:29;99142.57;;;18.46;83.80
76794;BME280;65745;50.278;18.192;2023-07-29T05:12:01;99146.56;;;18.55;83.46
76794;BME280;65745;50.278;18.192;2023-07-29T05:14:33;99146.88;;;18.64;84.40
76794;BME280;65745;50.278;18.192;2023-07-29T05:17:06;99150.14;;;18.73;84.22
76794;BME280;65745;50.278;18.192;2023-07-29T05:19:38;99150.72;;;18.84;84.24
76794;BME280;65745;50.278;18.192;2023-07-29T05:22:11;99151.45;;;18.96;83.69
76794;BME280;65745;50.278;18.192;2023-07-29T05:24:43;99151.58;;;19.05;83.61
76794;BME280;65745;50.278;18.192;2023-07-29T05:27:15;99150.83;;;19.13;83.40
76794;BME280;65745;50.278;18.192;2023-07-29T05:29:47;99151.30;;;19.22;83.47
76794;BME280;65745;50.278;18.192;2023-07-29T05:32:19;99150.66;;;19.32;82.56
76794;BME280;65745;50.278;18.192;2023-07-29T05:34:51;99151.56;;;19.45;82.31
76794;BME280;65745;50.278;18.192;2023-07-29T05:37:24;99151.80;;;19.61;82.30
76794;BME280;65745;50.278;18.192;2023-07-29T05:39:56;99146.80;;;19.77;81.96
76794;BME280;65745;50.278;18.192;2023-07-29T05:42:29;99144.76;;;19.92;81.45
76794;BME280;65745;50.278;18.192;2023-07-29T05:45:01;99146.40;;;20.07;80.99
76794;BME280;65745;50.278;18.192;2023-07-29T05:47:33;99145.61;;;20.21;80.36
76794;BME280;65745;50.278;18.192;2023-07-29T05:50:07;99146.46;;;20.34;79.97
76794;BME280;65745;50.278;18.192;2023-07-29T05:52:40;99146.73;;;20.47;79.50
76794;BME280;65745;50.278;18.192;2023-07-29T05:55:12;99142.98;;;20.55;79.19
76794;BME280;65745;50.278;18.192;2023-07-29T05:57:44;99151.06;;;20.59;78.92
76794;BME280;65745;50.278;18.192;2023-07-29T06:00:16;99150.65;;;20.66;79.25
76794;BME280;65745;50.278;18.192;2023-07-29T06:02:48;99149.40;;;20.78;78.77
76794;BME280;65745;50.278;18.192;2023-07-29T06:05:23;99153.86;;;20.86;78.73
76794;BME280;65745;50.278;18.192;2023-07-29T06:07:55;99158.11;;;20.89;78.61
76794;BME280;65745;50.278;18.192;2023-07-29T06:10:27;99162.80;;;20.90;78.17
76794;BME280;65745;50.278;18.192;2023-07-29T06:12:59;99164.41;;;20.89;77.62
76794;BME280;65745;50.278;18.192;2023-07-29T06:15:31;99163.94;;;20.88;77.67
76794;BME280;65745;50.278;18.192;2023-07-29T06:18:04;99163.79;;;20.88;77.42
76794;BME280;65745;50.278;18.192;2023-07-29T06:20:36;99166.85;;;20.95;77.77
76794;BME280;65745;50.278;18.192;2023-07-29T06:23:09;99165.91;;;21.07;77.81
76794;BME280;65745;50.278;18.192;2023-07-29T06:25:41;99170.05;;;21.19;77.51
76794;BME280;65745;50.278;18.192;2023-07-29T06:28:13;99168.41;;;21.31;77.30
76794;BME280;65745;50.278;18.192;2023-07-29T06:30:46;99169.61;;;21.47;76.97
76794;BME280;65745;50.278;18.192;2023-07-29T06:33:18;99170.98;;;21.67;76.27
76794;BME280;65745;50.278;18.192;2023-07-29T06:35:50;99169.61;;;21.85;75.42
76794;BME280;65745;50.278;18.192;2023-07-29T06:38:22;99171.72;;;22.12;75.25
76794;BME280;65745;50.278;18.192;2023-07-29T06:40:54;99168.48;;;22.37;74.70
76794;BME280;65745;50.278;18.192;2023-07-29T06:43:26;99169.95;;;22.57;73.16
76794;BME280;65745;50.278;18.192;2023-07-29T06:45:58;99168.86;;;22.80;73.00
76794;BME280;65745;50.278;18.192;2023-07-29T06:48:31;99169.95;;;23.08;72.47
76794;BME280;65745;50.278;18.192;2023-07-29T06:51:03;99173.48;;;23.24;69.86
76794;BME280;65745;50.278;18.192;2023-07-29T06:53:35;99175.19;;;23.33;70.00
76794;BME280;65745;50.278;18.192;2023-07-29T06:56:07;99174.83;;;23.42;69.76
76794;BME280;65745;50.278;18.192;2023-07-29T06:58:39;99170.84;;;23.36;68.00
76794;BME280;65745;50.278;18.192;2023-07-29T07:01:11;99171.67;;;23.37;67.95
76794;BME280;65745;50.278;18.192;2023-07-29T07:03:43;99167.52;;;23.48;67.31
76794;BME280;65745;50.278;18.192;2023-07-29T07:06:15;99164.41;;;23.55;66.83
76794;BME280;65745;50.278;18.192;2023-07-29T07:08:47;99165.04;;;23.56;65.92
76794;BME280;65745;50.278;18.192;2023-07-29T07:11:21;99156.42;;;23.53;65.77
76794;BME280;65745;50.278;18.192;2023-07-29T07:13:53;99159.02;;;23.54;65.52
76794;BME280;65745;50.278;18.192;2023-07-29T07:16:25;99158.52;;;23.60;65.49
76794;BME280;65745;50.278;18.192;2023-07-29T07:19:00;99159.29;;;23.71;65.58
76794;BME280;65745;50.278;18.192;2023-07-29T07:21:32;99158.72;;;23.76;65.65
76794;BME280;65745;50.278;18.192;2023-07-29T07:24:04;99158.32;;;23.73;65.29
76794;BME280;65745;50.278;18.192;2023-07-29T07:26:37;99153.54;;;23.70;64.67
76794;BME280;65745;50.278;18.192;2023-07-29T07:29:09;99151.80;;;23.77;64.36
76794;BME280;65745;50.278;18.192;2023-07-29T07:31:41;99152.05;;;23.90;63.57
76794;BME280;65745;50.278;18.192;2023-07-29T07:34:13;99150.50;;;24.01;63.49
76794;BME280;65745;50.278;18.192;2023-07-29T07:36:45;99143.73;;;24.10;63.23
76794;BME280;65745;50.278;18.192;2023-07-29T07:39:17;99140.27;;;24.24;62.35
76794;BME280;65745;50.278;18.192;2023-07-29T07:41:49;99140.66;;;24.34;61.99
76794;BME280;65745;50.278;18.192;2023-07-29T07:44:21;99145.59;;;24.49;61.90
76794;BME280;65745;50.278;18.192;2023-07-29T07:46:54;99152.48;;;24.66;61.68
76794;BME280;65745;50.278;18.192;2023-07-29T07:49:26;99147.39;;;24.83;61.46
76794;BME280;65745;50.278;18.192;2023-07-29T07:51:58;99146.29;;;24.92;61.23
76794;BME280;65745;50.278;18.192;2023-07-29T07:54:30;99146.64;;;24.95;61.32
76794;BME280;65745;50.278;18.192;2023-07-29T07:57:02;99136.67;;;25.04;60.73
76794;BME280;65745;50.278;18.192;2023-07-29T07:59:34;99141.10;;;25.20;60.07
76794;BME280;65745;50.278;18.192;2023-07-29T08:02:06;99137.45;;;25.36;58.41
76794;BME280;65745;50.278;18.192;2023-07-29T08:04:39;99137.01;;;25.41;57.44
76794;BME280;65745;50.278;18.192;2023-07-29T08:07:11;99136.73;;;25.53;57.77
76794;BME280;65745;50.278;18.192;2023-07-29T08:09:44;99138.75;;;25.68;57.43
76794;BME280;65745;50.278;18.192;2023-07-29T08:12:16;99138.85;;;25.79;55.50
76794;BME280;65745;50.278;18.192;2023-07-29T08:14:50;99132.25;;;25.81;54.73
76794;BME280;65745;50.278;18.192;2023-07-29T08:17:22;99131.49;;;25.95;55.55
76794;BME280;65745;50.278;18.192;2023-07-29T08:19:54;99128.31;;;26.01;54.94
76794;BME280;65745;50.278;18.192;2023-07-29T08:22:26;99126.05;;;26.07;53.53
76794;BME280;65745;50.278;18.192;2023-07-29T08:24:58;99129.31;;;26.15;54.02
76794;BME280;65745;50.278;18.192;2023-07-29T08:27:30;99126.60;;;26.03;54.39
76794;BME280;65745;50.278;18.192;2023-07-29T08:30:02;99123.97;;;25.90;53.99
76794;BME280;65745;50.278;18.192;2023-07-29T08:32:34;99117.08;;;26.06;54.28
76794;BME280;65745;50.278;18.192;2023-07-29T08:35:07;99118.69;;;26.28;54.51
76794;BME280;65745;50.278;18.192;2023-07-29T08:37:39;99118.11;;;26.44;54.21
76794;BME280;65745;50.278;18.192;2023-07-29T08:40:12;99113.51;;;26.39;54.26
76794;BME280;65745;50.278;18.192;2023-07-29T08:42:46;99112.41;;;26.48;54.37
76794;BME280;65745;50.278;18.192;2023-07-29T08:45:20;99112.41;;;26.45;54.16
76794;BME280;65745;50.278;18.192;2023-07-29T08:47:54;99114.40;;;26.44;54.75
76794;BME280;65745;50.278;18.192;2023-07-29T08:50:30;99114.16;;;26.42;54.87
76794;BME280;65745;50.278;18.192;2023-07-29T08:53:05;99113.43;;;26.33;54.65
76794;BME280;65745;50.278;18.192;2023-07-29T08:55:37;99109.95;;;26.13;54.66
76794;BME280;65745;50.278;18.192;2023-07-29T08:58:09;99109.60;;;26.04;54.34
76794;BME280;65745;50.278;18.192;2023-07-29T09:00:42;99103.00;;;25.90;54.61
76794;BME280;65745;50.278;18.192;2023-07-29T09:03:14;99101.79;;;25.86;54.65
76794;BME280;65745;50.278;18.192;2023-07-29T09:05:47;99093.73;;;25.88;54.30
76794;BME280;65745;50.278;18.192;2023-07-29T09:08:20;99092.41;;;26.21;53.00
76794;BME280;65745;50.278;18.192;2023-07-29T09:10:53;99089.76;;;26.46;53.22
76794;BME280;65745;50.278;18.192;2023-07-29T09:13:26;99089.41;;;26.73;52.75
76794;BME280;65745;50.278;18.192;2023-07-29T09:15:58;99092.09;;;26.90;50.47
76794;BME280;65745;50.278;18.192;2023-07-29T09:18:30;99090.38;;;27.25;50.00
76794;BME280;65745;50.278;18.192;2023-07-29T09:21:02;99084.23;;;27.40;49.18
76794;BME280;65745;50.278;18.192;2023-07-29T09:23:42;99079.59;;;27.70;48.89
76794;BME280;65745;50.278;18.192;2023-07-29T09:26:14;99076.80;;;27.67;48.96
76794;BME280;65745;50.278;18.192;2023-07-29T09:28:55;99075.95;;;27.88;49.44
76794;BME280;65745;50.278;18.192;2023-07-29T09:31:29;99077.67;;;27.86;48.28
76794;BME280;65745;50.278;18.192;2023-07-29T09:34:02;99070.83;;;27.43;48.07
76794;BME280;65745;50.278;18.192;2023-07-29T09:36:35;99071.32;;;27.43;49.36
76794;BME280;65745;50.278;18.192;2023-07-29T09:39:12;99070.70;;;27.54;49.02
76794;BME280;65745;50.278;18.192;2023-07-29T09:41:48;99067.74;;;27.38;49.56
76794;BME280;65745;50.278;18.192;2023-07-29T09:44:21;99068.35;;;27.23;48.98
76794;BME280;65745;50.278;18.192;2023-07-29T09:46:53;99062.08;;;27.53;49.38
76794;BME280;65745;50.278;18.192;2023-07-29T09:49:25;99060.33;;;27.83;49.25
76794;BME280;65745;50.278;18.192;2023-07-29T09:51:58;99066.89;;;27.86;48.56
76794;BME280;65745;50.278;18.192;2023-07-29T09:54:32;99065.69;;;27.58;48.93
76794;BME280;65745;50.278;18.192;2023-07-29T09:57:08;99066.21;;;27.34;50.03
76794;BME280;65745;50.278;18.192;2023-07-29T09:59:40;99066.65;;;27.39;50.22
76794;BME280;65745;50.278;18.192;2023-07-29T10:02:15;99060.13;;;27.47;50.82
76794;BME280;65745;50.278;18.192;2023-07-29T10:04:48;99055.58;;;27.80;50.77
76794;BME280;65745;50.278;18.192;2023-07-29T10:07:21;99054.06;;;27.93;49.90
76794;BME280;65745;50.278;18.192;2023-07-29T10:09:54;99057.98;;;27.56;49.70
76794;BME280;65745;50.278;18.192;2023-07-29T10:12:29;99051.46;;;27.27;49.98
76794;BME280;65745;50.278;18.192;2023-07-29T10:15:04;99054.45;;;26.93;49.96
76794;BME280;65745;50.278;18.192;2023-07-29T10:17:38;99052.16;;;26.63;51.05
76794;BME280;65745;50.278;18.192;2023-07-29T10:20:12;99055.11;;;26.46;51.23
76794;BME280;65745;50.278;18.192;2023-07-29T10:22:46;99055.26;;;26.38;51.32
76794;BME280;65745;50.278;18.192;2023-07-29T10:25:21;99057.66;;;26.24;51.73
76794;BME280;65745;50.278;18.192;2023-07-29T10:27:59;99056.35;;;26.18;51.83
76794;BME280;65745;50.278;18.192;2023-07-29T10:30:33;99063.71;;;26.16;51.44
76794;BME280;65745;50.278;18.192;2023-07-29T10:33:06;99058.59;;;26.07;51.73
76794;BME280;65745;50.278;18.192;2023-07-29T10:35:39;99052.41;;;26.26;51.91
76794;BME280;65745;50.278;18.192;2023-07-29T10:38:12;99052.39;;;26.32;52.19
76794;BME280;65745;50.278;18.192;2023-07-29T10:40:50;99053.38;;;26.21;52.18
76794;BME280;65745;50.278;18.192;2023-07-29T10:43:26;99047.63;;;26.17;52.74
76794;BME280;65745;50.278;18.192;2023-07-29T10:46:14;99046.65;;;26.15;52.56
76794;BME280;65745;50.278;18.192;2023-07-29T10:48:54;99041.60;;;26.08;52.79
76794;BME280;65745;50.278;18.192;2023-07-29T10:51:28;99038.05;;;26.08;52.41
76794;BME280;65745;50.278;18.192;2023-07-29T10:54:02;99037.58;;;26.53;51.82
76794;BME280;65745;50.278;18.192;2023-07-29T10:56:36;99023.69;;;27.19;50.44
76794;BME280;65745;50.278;18.192;2023-07-29T10:59:34;99021.13;;;27.82;49.83
76794;BME280;65745;50.278;18.192;2023-07-29T11:02:15;99016.36;;;28.38;48.51
76794;BME280;65745;50.278;18.192;2023-07-29T11:04:51;99011.55;;;28.88;48.18
76794;BME280;65745;50.278;18.192;2023-07-29T11:07:25;99006.98;;;29.02;47.08
76794;BME280;65745;50.278;18.192;2023-07-29T11:10:02;98999.67;;;29.51;46.76
76794;BME280;65745;50.278;18.192;2023-07-29T11:12:46;98993.84;;;29.25;46.01
76794;BME280;65745;50.278;18.192;2023-07-29T11:15:21;99003.80;;;28.87;45.92
76794;BME280;65745;50.278;18.192;2023-07-29T11:17:54;99010.84;;;28.44;46.80
76794;BME280;65745;50.278;18.192;2023-07-29T11:20:28;99009.37;;;28.65;46.66
76794;BME280;65745;50.278;18.192;2023-07-29T11:23:03;99003.97;;;28.97;46.75
76794;BME280;65745;50.278;18.192;2023-07-29T11:25:35;98997.94;;;29.40;45.98
76794;BME280;65745;50.278;18.192;2023-07-29T11:28:08;99000.57;;;29.84;45.26
76794;BME280;65745;50.278;18.192;2023-07-29T11:30:41;99003.95;;;30.16;44.94
76794;BME280;65745;50.278;18.192;2023-07-29T11:33:14;99003.21;;;30.42;43.68
76794;BME280;65745;50.278;18.192;2023-07-29T11:35:46;99002.42;;;30.73;42.95
76794;BME280;65745;50.278;18.192;2023-07-29T11:38:19;98992.33;;;30.97;42.68
76794;BME280;65745;50.278;18.192;2023-07-29T11:41:01;98992.21;;;31.08;42.13
76794;BME280;65745;50.278;18.192;2023-07-29T11:43:37;98984.35;;;31.24;42.69
76794;BME280;65745;50.278;18.192;2023-07-29T11:46:09;98981.04;;;31.65;41.55
76794;BME280;65745;50.278;18.192;2023-07-29T11:48:45;98968.73;;;31.85;41.07
76794;BME280;65745;50.278;18.192;2023-07-29T11:51:18;98964.73;;;32.14;40.84
76794;BME280;65745;50.278;18.192;2023-07-29T11:53:50;98961.05;;;32.22;40.66
76794;BME280;65745;50.278;18.192;2023-07-29T11:56:24;98960.58;;;32.25;40.07
76794;BME280;65745;50.278;18.192;2023-07-29T11:58:56;98961.62;;;32.15;40.66
76794;BME280;65745;50.278;18.192;2023-07-29T12:01:29;98967.48;;;31.81;40.71
76794;BME280;65745;50.278;18.192;2023-07-29T12:04:01;98962.75;;;31.86;40.72
76794;BME280;65745;50.278;18.192;2023-07-29T12:06:34;98955.06;;;32.01;40.74
76794;BME280;65745;50.278;18.192;2023-07-29T12:09:06;98957.42;;;31.78;40.77
76794;BME280;65745;50.278;18.192;2023-07-29T12:11:40;98951.36;;;32.07;40.79
76794;BME280;65745;50.278;18.192;2023-07-29T12:14:13;98953.98;;;32.33;40.00
76794;BME280;65745;50.278;18.192;2023-07-29T12:16:47;98948.53;;;31.96;39.46
76794;BME280;65745;50.278;18.192;2023-07-29T12:19:19;98953.83;;;31.74;38.50
76794;BME280;65745;50.278;18.192;2023-07-29T12:21:54;98947.15;;;31.66;39.62
76794;BME280;65745;50.278;18.192;2023-07-29T12:24:26;98947.57;;;31.35;40.07
76794;BME280;65745;50.278;18.192;2023-07-29T12:26:59;98942.60;;;31.30;39.31
76794;BME280;65745;50.278;18.192;2023-07-29T12:29:31;98943.56;;;31.46;38.88
76794;BME280;65745;50.278;18.192;2023-07-29T12:32:05;98938.34;;;31.47;39.24
76794;BME280;65745;50.278;18.192;2023-07-29T12:34:38;98937.92;;;31.33;39.48
76794;BME280;65745;50.278;18.192;2023-07-29T12:37:11;98932.00;;;31.07;40.14
76794;BME280;65745;50.278;18.192;2023-07-29T12:39:43;98929.34;;;31.09;40.18
76794;BME280;65745;50.278;18.192;2023-07-29T12:42:15;98924.48;;;31.25;40.45
76794;BME280;65745;50.278;18.192;2023-07-29T12:44:48;98924.84;;;31.51;39.82
76794;BME280;65745;50.278;18.192;2023-07-29T12:47:20;98923.21;;;31.62;39.29
76794;BME280;65745;50.278;18.192;2023-07-29T12:49:52;98926.48;;;31.53;38.80
76794;BME280;65745;50.278;18.192;2023-07-29T12:52:24;98919.97;;;31.80;38.60
76794;BME280;65745;50.278;18.192;2023-07-29T12:54:56;98922.63;;;32.14;37.09
76794;BME280;65745;50.278;18.192;2023-07-29T12:57:28;98922.88;;;32.42;36.97
76794;BME280;65745;50.278;18.192;2023-07-29T13:00:00;98918.00;;;32.52;36.68
76794;BME280;65745;50.278;18.192;2023-07-29T13:02:33;98921.05;;;32.70;36.98
76794;BME280;65745;50.278;18.192;2023-07-29T13:05:08;98923.14;;;32.56;36.63
76794;BME280;65745;50.278;18.192;2023-07-29T13:07:42;98924.60;;;32.58;36.00
76794;BME280;65745;50.278;18.192;2023-07-29T13:10:15;98927.55;;;32.24;35.27
76794;BME280;65745;50.278;18.192;2023-07-29T13:12:47;98919.66;;;31.88;35.10
76794;BME280;65745;50.278;18.192;2023-07-29T13:15:19;98921.81;;;31.53;35.73
76794;BME280;65745;50.278;18.192;2023-07-29T13:17:52;98919.57;;;31.26;37.22
76794;BME280;65745;50.278;18.192;2023-07-29T13:20:24;98916.37;;;31.11;37.85